Time;durP1;ratioP1;P1;durP2;ratioP2;P2;SDS_P1;SDS_P2;PMS_P1;PMS_P2;Temp;Humidity;BMP_temperature;BMP_pressure;BME280_temperature;BME280_humidity;BME280_pressure;Samples;Min_cycle;Max_cycle;Signal;HPM_P1;HPM_P2
2023/05/06 00:01:50;;;;;;;13.93;12.27;;;;;;;12.06;100.00;101540.22;5031983;28;20026;-81
2023/05/06 00:04:15;;;;;;;14.93;12.98;;;;;;;12.00;100.00;101530.00;5028814;28;20124;-81
2023/05/06 00:06:41;;;;;;;14.38;12.88;;;;;;;12.02;100.00;101533.41;5028396;28;20141;-81
2023/05/06 00:09:06;;;;;;;16.83;13.48;;;;;;;11.99;100.00;101533.63;5043613;28;20029;-81
2023/05/06 00:11:32;;;;;;;13.75;12.35;;;;;;;11.97;100.00;101532.88;5049732;28;20053;-81
2023/05/06 00:13:57;;;;;;;15.30;12.25;;;;;;;11.88;100.00;101531.69;5040664;28;20068;-81
2023/05/06 00:16:23;;;;;;;15.05;13.07;;;;;;;11.89;100.00;101537.88;5047339;28;20076;-81
2023/05/06 00:18:48;;;;;;;15.82;13.07;;;;;;;11.85;100.00;101535.41;5038478;28;20022;-81
2023/05/06 00:21:13;;;;;;;15.00;13.30;;;;;;;11.82;100.00;101532.13;5046837;28;20040;-81
2023/05/06 00:23:39;;;;;;;15.18;13.18;;;;;;;11.73;100.00;101520.34;5047926;28;20033;-81
2023/05/06 00:26:04;;;;;;;14.93;13.32;;;;;;;11.65;100.00;101512.03;5036526;28;20024;-81
2023/05/06 00:28:29;;;;;;;15.50;13.77;;;;;;;11.75;100.00;101529.06;5027438;28;20100;-81
2023/05/06 00:30:56;;;;;;;14.35;12.95;;;;;;;11.68;100.00;101530.44;5034656;28;20061;-81
2023/05/06 00:33:21;;;;;;;14.40;12.90;;;;;;;11.70;100.00;101531.19;5043501;28;20033;-81
2023/05/06 00:35:47;;;;;;;14.43;12.95;;;;;;;11.65;100.00;101526.19;5042849;28;20037;-81
2023/05/06 00:38:14;;;;;;;15.40;13.48;;;;;;;11.69;100.00;101531.28;5034882;28;20079;-81
2023/05/06 00:40:40;;;;;;;15.65;13.45;;;;;;;11.58;100.00;101524.91;5031179;28;20032;-81
2023/05/06 00:43:05;;;;;;;15.27;13.55;;;;;;;11.60;100.00;101528.31;5032550;28;20030;-81
2023/05/06 00:45:31;;;;;;;14.30;12.80;;;;;;;11.58;100.00;101524.91;5032647;28;20325;-81
2023/05/06 00:47:57;;;;;;;13.98;12.40;;;;;;;11.52;100.00;101513.84;5036482;28;20033;-81
2023/05/06 00:50:23;;;;;;;16.88;14.07;;;;;;;11.48;100.00;101524.72;5035917;28;20025;-81
2023/05/06 00:52:49;;;;;;;16.30;13.07;;;;;;;11.48;100.00;101524.72;5036223;28;20037;-81
2023/05/06 00:55:15;;;;;;;16.55;13.60;;;;;;;11.45;100.00;101532.91;5024513;28;20475;-81
2023/05/06 00:57:40;;;;;;;16.23;14.52;;;;;;;11.43;100.00;101520.69;5022487;28;20083;-81
2023/05/06 01:00:06;;;;;;;14.65;13.15;;;;;;;11.37;100.00;101515.78;5030441;28;20497;-81
2023/05/06 01:02:32;;;;;;;15.68;14.00;;;;;;;11.36;100.00;101519.38;5018635;28;20080;-81
2023/05/06 01:04:58;;;;;;;17.83;14.00;;;;;;;11.35;100.00;101523.00;5029984;28;20049;-81
2023/05/06 01:07:38;;;;;;;16.23;13.85;;;;;;;11.32;100.00;101515.25;5024092;28;20458;-81
2023/05/06 01:10:18;;;;;;;14.88;12.70;;;;;;;11.30;100.00;101518.84;5035450;28;20075;-81
2023/05/06 01:13:05;;;;;;;14.80;12.88;;;;;;;11.30;100.00;101525.97;5033248;28;20028;-81
2023/05/06 01:15:44;;;;;;;15.85;13.73;;;;;;;11.26;100.00;101516.53;5033658;28;20034;-81
2023/05/06 01:18:15;;;;;;;14.82;12.75;;;;;;;11.22;100.00;101517.69;5037899;28;20064;-81
2023/05/06 01:20:44;;;;;;;17.00;13.55;;;;;;;11.19;100.00;101524.06;5030716;28;20555;-81
2023/05/06 01:23:11;;;;;;;16.33;13.40;;;;;;;11.16;100.00;101513.66;5032723;28;20468;-81
2023/05/06 01:25:37;;;;;;;15.77;13.70;;;;;;;11.14;100.00;101515.56;5034733;28;20029;-81
2023/05/06 01:28:03;;;;;;;16.48;13.60;;;;;;;11.13;100.00;101505.03;5021859;28;20038;-81
2023/05/06 01:30:37;;;;;;;14.23;12.73;;;;;;;11.06;100.00;101497.47;5030018;28;20104;-81
2023/05/06 01:33:10;;;;;;;16.77;13.10;;;;;;;11.05;100.00;101503.72;5033163;28;20052;-81
2023/05/06 01:35:57;;;;;;;19.45;14.27;;;;;;;11.04;100.00;101506.50;5033055;28;20033;-81
2023/05/06 01:38:42;;;;;;;16.88;13.68;;;;;;;11.03;100.00;101510.97;5034290;28;20422;-81
2023/05/06 01:41:13;;;;;;;16.45;12.95;;;;;;;10.96;100.00;101504.38;5030286;28;20492;-81
2023/05/06 01:43:41;;;;;;;16.38;13.68;;;;;;;10.96;100.00;101507.03;5022284;28;20036;-81
2023/05/06 01:46:12;;;;;;;14.95;13.02;;;;;;;10.92;100.00;101509.06;5032608;28;20045;-81
2023/05/06 01:48:38;;;;;;;15.35;12.63;;;;;;;10.89;100.00;101511.91;5030708;28;20034;-81
2023/05/06 01:51:03;;;;;;;14.50;13.00;;;;;;;10.87;100.00;101515.59;5034399;28;20052;-81
2023/05/06 01:53:30;;;;;;;16.02;13.32;;;;;;;10.81;100.00;101518.66;5032874;28;20040;-81
2023/05/06 01:55:55;;;;;;;15.15;12.68;;;;;;;10.84;100.00;101532.63;5034757;28;20464;-81
2023/05/06 01:58:20;;;;;;;14.43;12.30;;;;;;;10.82;100.00;101531.84;5029295;28;20033;-81
2023/05/06 02:00:46;;;;;;;14.77;13.18;;;;;;;10.79;100.00;101532.09;5030041;28;20045;-81
2023/05/06 02:03:11;;;;;;;14.52;13.02;;;;;;;10.77;100.00;101525.16;5022672;28;20030;-81
2023/05/06 02:05:36;;;;;;;15.38;12.98;;;;;;;10.74;100.00;101526.19;5030383;28;20031;-81
2023/05/06 02:08:02;;;;;;;18.55;13.70;;;;;;;10.70;100.00;101530.88;5035365;28;20128;-81
2023/05/06 02:10:27;;;;;;;16.95;13.50;;;;;;;10.70;100.00;101530.03;5032090;28;20036;-81
2023/05/06 02:12:52;;;;;;;14.43;12.52;;;;;;;10.68;100.00;101527.47;5034509;28;20025;-81
2023/05/06 02:15:17;;;;;;;15.38;13.20;;;;;;;10.67;100.00;101539.03;5026644;28;20025;-81
2023/05/06 02:17:43;;;;;;;15.55;13.48;;;;;;;10.68;100.00;101537.25;5034910;28;20096;-81
2023/05/06 02:20:08;;;;;;;14.73;13.10;;;;;;;10.62;100.00;101543.81;5035285;28;20430;-81
2023/05/06 02:22:34;;;;;;;14.63;13.07;;;;;;;10.61;100.00;101543.91;5037842;28;20431;-81
2023/05/06 02:25:00;;;;;;;14.00;12.52;;;;;;;10.59;100.00;101540.50;5036333;28;20059;-81
2023/05/06 02:27:25;;;;;;;15.38;13.02;;;;;;;10.58;100.00;101544.13;5034006;28;20470;-81
2023/05/06 02:29:50;;;;;;;14.82;12.85;;;;;;;10.56;100.00;101541.56;5027794;28;20079;-81
2023/05/06 02:32:16;;;;;;;16.13;12.63;;;;;;;10.51;100.00;101544.53;5034065;28;20036;-81
2023/05/06 02:34:41;;;;;;;17.30;13.82;;;;;;;10.51;100.00;101547.19;5039089;28;20021;-81
2023/05/06 02:37:06;;;;;;;15.13;12.85;;;;;;;10.47;100.00;101542.16;5037206;28;20387;-81
2023/05/06 02:39:32;;;;;;;15.23;12.63;;;;;;;10.46;100.00;101527.16;5037620;28;20025;-81
2023/05/06 02:41:57;;;;;;;16.20;13.30;;;;;;;10.46;100.00;101549.28;5032510;28;20045;-81
2023/05/06 02:44:22;;;;;;;15.18;12.68;;;;;;;10.44;100.00;101537.03;5035518;28;20029;-81
2023/05/06 02:46:47;;;;;;;13.90;12.50;;;;;;;10.37;100.00;101528.63;5024311;28;20030;-81
2023/05/06 02:49:13;;;;;;;14.88;12.98;;;;;;;10.44;100.00;101529.94;5024654;28;20021;-81
2023/05/06 02:51:38;;;;;;;15.23;13.13;;;;;;;10.42;100.00;101544.25;5037431;28;20033;-81
2023/05/06 02:54:03;;;;;;;14.32;12.50;;;;;;;10.37;100.00;101531.28;5041356;28;20025;-81
2023/05/06 02:56:30;;;;;;;14.73;12.57;;;;;;;10.37;100.00;101536.59;5031021;28;20037;-80
2023/05/06 02:58:55;;;;;;;15.90;12.07;;;;;;;10.34;100.00;101531.47;5037541;28;20036;-81
2023/05/06 03:01:20;;;;;;;14.85;11.95;;;;;;;10.34;100.00;101534.13;5030772;28;20021;-80
2023/05/06 03:03:46;;;;;;;15.27;12.05;;;;;;;10.31;100.00;101532.50;5024359;28;20029;-81
2023/05/06 03:06:11;;;;;;;14.15;12.07;;;;;;;10.30;100.00;101540.56;5036553;28;20033;-81
2023/05/06 03:08:36;;;;;;;13.68;12.27;;;;;;;10.29;100.00;101538.84;5024357;28;20108;-80
2023/05/06 03:11:02;;;;;;;14.15;12.18;;;;;;;10.19;100.00;101522.66;5032386;28;20041;-81
2023/05/06 03:13:27;;;;;;;13.63;11.30;;;;;;;10.24;100.00;101532.97;5031151;28;20059;-81
2023/05/06 03:15:53;;;;;;;17.63;11.85;;;;;;;10.22;100.00;101532.22;5031634;28;20109;-81
2023/05/06 03:18:18;;;;;;;14.27;11.02;;;;;;;10.17;100.00;101541.38;5034928;28;20030;-81
2023/05/06 03:20:43;;;;;;;14.80;12.10;;;;;;;10.17;100.00;101535.19;5019047;28;20361;-81
2023/05/06 03:23:09;;;;;;;12.65;11.27;;;;;;;10.12;100.00;101522.19;5034532;28;20479;-80
2023/05/06 03:25:34;;;;;;;14.40;11.88;;;;;;;10.11;100.00;101530.28;5033151;28;20117;-81
2023/05/06 03:28:00;;;;;;;14.00;11.32;;;;;;;10.11;100.00;101523.16;5035633;28;20765;-81
2023/05/06 03:30:25;;;;;;;12.77;11.45;;;;;;;10.09;100.00;101524.19;5036113;28;20061;-80
2023/05/06 03:32:50;;;;;;;15.13;12.13;;;;;;;10.07;100.00;101524.28;5034427;28;20025;-81
2023/05/06 03:35:15;;;;;;;12.07;10.65;;;;;;;10.03;100.00;101530.75;5039446;28;20494;-80
2023/05/06 03:37:41;;;;;;;13.80;11.25;;;;;;;9.98;100.00;101517.78;5030108;28;20025;-81
2023/05/06 03:40:07;;;;;;;14.40;11.27;;;;;;;9.97;100.00;101520.53;5038146;28;20057;-81
2023/05/06 03:42:32;;;;;;;16.80;11.65;;;;;;;9.92;100.00;101520.81;5028157;28;20030;-81
2023/05/06 03:44:57;;;;;;;15.05;11.98;;;;;;;9.89;100.00;101513.06;5041959;28;20025;-81
2023/05/06 03:47:23;;;;;;;12.30;11.00;;;;;;;9.90;100.00;101520.06;5027014;28;20044;-81
2023/05/06 03:49:48;;;;;;;11.80;10.38;;;;;;;9.89;100.00;101528.97;5034680;28;20022;-81
2023/05/06 03:52:13;;;;;;;14.02;11.20;;;;;;;9.88;100.00;101527.25;5053813;28;20029;-81
2023/05/06 03:54:39;;;;;;;12.18;10.98;;;;;;;9.88;100.00;101523.78;5056163;28;20029;-81
2023/05/06 03:57:04;;;;;;;13.07;11.00;;;;;;;9.86;100.00;101530.94;5054881;28;20029;-81
2023/05/06 03:59:29;;;;;;;15.13;10.27;;;;;;;9.79;100.00;101518.09;5038201;28;20032;-81
2023/05/06 04:01:55;;;;;;;12.13;10.35;;;;;;;9.80;100.00;101522.44;5034719;28;20360;-81
2023/05/06 04:04:20;;;;;;;11.80;10.55;;;;;;;9.80;100.00;101530.38;5027724;28;20449;-81
2023/05/06 04:06:45;;;;;;;11.35;10.23;;;;;;;9.78;100.00;101529.63;5037365;28;20053;-81
2023/05/06 04:09:13;;;;;;;13.50;10.65;;;;;;;9.74;100.00;101535.22;5038426;28;20414;-81
2023/05/06 04:11:38;;;;;;;13.63;10.55;;;;;;;9.67;100.00;101526.78;5036143;28;20026;-81
2023/05/06 04:14:04;;;;;;;13.00;10.48;;;;;;;9.74;100.00;101533.44;5030735;28;20032;-81
2023/05/06 04:16:29;;;;;;;12.65;9.57;;;;;;;9.73;100.00;101534.38;5036849;28;20390;-81
2023/05/06 04:18:55;;;;;;;13.70;10.40;;;;;;;9.72;100.00;101532.66;5027872;28;20072;-81
2023/05/06 04:21:20;;;;;;;13.15;10.30;;;;;;;9.74;100.00;101538.75;5030719;28;20463;-81
2023/05/06 04:23:45;;;;;;;13.77;9.93;;;;;;;9.77;100.00;101535.03;5028050;28;20037;-81
2023/05/06 04:26:10;;;;;;;12.88;10.38;;;;;;;9.76;100.00;101534.19;5037233;28;20100;-81
2023/05/06 04:28:36;;;;;;;15.27;10.07;;;;;;;9.79;100.00;101538.44;5024372;28;20080;-81
2023/05/06 04:31:01;;;;;;;11.40;9.82;;;;;;;9.77;100.00;101541.19;5037320;28;20502;-81
2023/05/06 04:33:28;;;;;;;13.80;10.38;;;;;;;9.78;100.00;101548.22;5021855;28;20036;-81
2023/05/06 04:35:54;;;;;;;11.68;9.45;;;;;;;9.80;100.00;101550.78;5024982;28;20025;-81
2023/05/06 04:38:21;;;;;;;12.70;10.15;;;;;;;9.77;100.00;101543.84;5024574;28;20026;-81
2023/05/06 04:40:46;;;;;;;11.90;9.73;;;;;;;9.81;100.00;101548.03;5036518;28;20032;-81
2023/05/06 04:43:13;;;;;;;15.20;10.55;;;;;;;9.80;100.00;101540.16;5035678;28;20033;-81
2023/05/06 04:45:41;;;;;;;11.75;10.10;;;;;;;9.86;100.00;101546.88;5032186;28;20028;-81
2023/05/06 04:48:08;;;;;;;12.70;9.57;;;;;;;9.86;100.00;101545.09;5025805;28;20022;-81
2023/05/06 04:50:33;;;;;;;11.25;9.63;;;;;;;9.89;100.00;101554.66;5032690;28;20045;-81
2023/05/06 04:52:59;;;;;;;11.27;9.75;;;;;;;9.90;100.00;101551.06;5035827;28;20028;-81
2023/05/06 04:55:24;;;;;;;14.23;10.48;;;;;;;9.95;100.00;101557.75;5036140;28;20021;-81
2023/05/06 04:57:50;;;;;;;10.48;9.35;;;;;;;9.95;100.00;101551.63;5035358;28;20045;-81
2023/05/06 05:00:18;;;;;;;15.18;9.75;;;;;;;9.93;100.00;101551.72;5033241;28;20025;-81
2023/05/06 05:02:43;;;;;;;12.45;9.93;;;;;;;9.99;100.00;101567.25;5033141;28;20100;-81
2023/05/06 05:05:09;;;;;;;12.25;9.80;;;;;;;9.97;100.00;101562.97;5035197;28;20032;-81
2023/05/06 05:07:34;;;;;;;11.43;9.57;;;;;;;10.04;100.00;101568.75;5028454;28;20069;-82
2023/05/06 05:10:00;;;;;;;11.35;9.18;;;;;;;10.05;100.00;101567.81;5035022;28;20111;-81
2023/05/06 05:12:25;;;;;;;11.32;9.50;;;;;;;10.07;100.00;101564.09;5026817;28;20504;-81
2023/05/06 05:14:50;;;;;;;15.52;9.77;;;;;;;10.12;100.00;101571.78;5027046;28;20081;-82
2023/05/06 05:17:16;;;;;;;13.07;9.50;;;;;;;10.13;100.00;101579.66;5035680;28;20075;-82
2023/05/06 05:19:41;;;;;;;11.27;9.60;;;;;;;10.17;100.00;101575.88;5035534;28;20036;-81
2023/05/06 05:22:06;;;;;;;12.00;9.52;;;;;;;10.21;100.00;101573.88;5034331;28;20112;-82
2023/05/06 05:24:31;;;;;;;12.48;9.15;;;;;;;10.29;100.00;101578.66;5034175;28;20037;-82
2023/05/06 05:26:57;;;;;;;11.63;9.30;;;;;;;10.33;100.00;101581.06;5031857;28;20029;-81
2023/05/06 05:29:22;;;;;;;10.73;9.40;;;;;;;10.39;100.00;101577.16;5035406;28;20533;-82
2023/05/06 05:31:47;;;;;;;14.27;9.90;;;;;;;10.45;100.00;101581.25;5035480;28;20026;-82
2023/05/06 05:34:12;;;;;;;10.63;9.52;;;;;;;10.52;100.00;101585.19;5035625;28;20033;-82
2023/05/06 05:36:38;;;;;;;12.25;10.25;;;;;;;10.59;100.00;101591.84;5035673;28;20031;-81
2023/05/06 05:39:03;;;;;;;12.13;9.48;;;;;;;10.64;100.00;101595.06;5038277;28;20029;-82
2023/05/06 05:41:29;;;;;;;15.65;10.00;;;;;;;10.69;100.00;101597.38;5035532;28;20100;-82
2023/05/06 05:43:54;;;;;;;15.55;9.93;;;;;;;10.85;100.00;101597.25;5034958;28;20439;-81
2023/05/06 05:46:19;;;;;;;12.13;9.73;;;;;;;11.01;100.00;101594.44;5035601;28;20028;-82
2023/05/06 05:48:45;;;;;;;15.27;9.52;;;;;;;11.13;100.00;101596.28;5035319;28;20021;-82
2023/05/06 05:51:10;;;;;;;13.00;9.23;;;;;;;11.26;100.00;101585.66;5035122;28;20034;-82
2023/05/06 05:53:35;;;;;;;11.35;9.05;;;;;;;11.35;100.00;101593.00;5034904;28;20071;-82
2023/05/06 05:56:00;;;;;;;15.18;8.80;;;;;;;11.42;100.00;101582.81;5034461;28;20026;-81
2023/05/06 05:58:26;;;;;;;13.02;9.23;;;;;;;11.56;100.00;101584.53;5024649;28;20053;-82
2023/05/06 06:00:51;;;;;;;12.73;8.60;;;;;;;11.60;100.00;101589.50;5034673;28;20337;-81
2023/05/06 06:03:17;;;;;;;10.98;8.70;;;;;;;11.64;100.00;101588.38;5034585;28;20329;-82
2023/05/06 06:05:42;;;;;;;11.65;8.32;;;;;;;11.68;100.00;101585.50;5034487;28;20033;-81
2023/05/06 06:08:07;;;;;;;12.25;7.85;;;;;;;11.71;100.00;101594.09;5031825;28;20102;-82
2023/05/06 06:10:33;;;;;;;12.35;8.15;;;;;;;11.76;100.00;101586.66;5033094;28;20025;-82
2023/05/06 06:12:58;;;;;;;11.95;7.70;;;;;;;11.83;100.00;101577.28;5033943;28;20025;-82
2023/05/06 06:15:23;;;;;;;13.63;7.90;;;;;;;11.92;100.00;101578.47;5032660;28;20140;-81
2023/05/06 06:17:51;;;;;;;10.90;7.57;;;;;;;12.01;100.00;101585.81;5034877;28;20077;-82
2023/05/06 06:20:16;;;;;;;11.88;7.93;;;;;;;12.13;100.00;101591.22;5040144;28;20038;-82
2023/05/06 06:22:42;;;;;;;11.43;7.80;;;;;;;12.16;100.00;101581.19;5040497;28;20390;-81
2023/05/06 06:25:08;;;;;;;9.35;7.20;;;;;;;12.25;100.00;101589.50;5038787;28;20033;-82
2023/05/06 06:27:34;;;;;;;11.35;7.90;;;;;;;12.35;100.00;101588.72;5037093;28;20061;-82
2023/05/06 06:29:59;;;;;;;12.63;7.90;;;;;;;12.56;100.00;101596.13;5031769;28;20026;-82
2023/05/06 06:32:25;;;;;;;11.00;6.85;;;;;;;12.70;100.00;101590.63;5035685;28;20052;-82
2023/05/06 06:34:50;;;;;;;9.23;7.32;;;;;;;12.82;100.00;101598.69;5035435;28;20478;-82
2023/05/06 06:37:15;;;;;;;11.00;6.63;;;;;;;13.00;100.00;101591.97;5039155;28;20136;-81
2023/05/06 06:39:41;;;;;;;9.95;6.45;;;;;;;13.14;100.00;101588.28;5031704;28;20306;-82
2023/05/06 06:42:06;;;;;;;9.98;6.68;;;;;;;13.26;100.00;101598.00;5034005;28;20112;-82
2023/05/06 06:44:34;;;;;;;10.32;7.10;;;;;;;13.41;100.00;101605.84;5029798;28;20447;-82
2023/05/06 06:47:01;;;;;;;9.60;6.90;;;;;;;13.52;100.00;101605.84;5026536;28;20045;-81
2023/05/06 06:49:27;;;;;;;10.50;6.72;;;;;;;13.68;100.00;101594.84;5031711;28;20430;-81
2023/05/06 06:51:53;;;;;;;9.50;6.53;;;;;;;13.80;100.00;101598.38;5031596;28;20120;-81
2023/05/06 06:54:18;;;;;;;10.93;6.80;;;;;;;13.93;100.00;101593.78;5025676;28;20447;-82
2023/05/06 06:56:43;;;;;;;10.85;6.13;;;;;;;14.14;100.00;101604.59;5032509;28;20455;-81
2023/05/06 06:59:09;;;;;;;9.43;6.55;;;;;;;14.37;100.00;101604.56;5032000;28;20040;-82
2023/05/06 07:01:34;;;;;;;9.82;6.38;;;;;;;14.64;100.00;101600.66;5027698;28;20171;-80
2023/05/06 07:03:59;;;;;;;10.35;6.30;;;;;;;14.87;100.00;101609.44;5031399;28;20052;-81
2023/05/06 07:06:25;;;;;;;11.13;6.93;;;;;;;15.05;99.89;101596.38;5031338;28;20130;-81
2023/05/06 07:08:50;;;;;;;10.20;6.93;;;;;;;15.26;97.42;101602.59;5033143;28;20045;-81
2023/05/06 07:11:15;;;;;;;8.73;6.35;;;;;;;15.44;95.75;101607.41;5034957;28;20037;-81
2023/05/06 07:13:41;;;;;;;12.02;7.22;;;;;;;15.58;95.96;101607.03;5033631;28;20339;-81
2023/05/06 07:16:06;;;;;;;10.07;6.50;;;;;;;15.86;94.91;101610.06;5035469;28;20041;-81
2023/05/06 07:18:31;;;;;;;10.95;7.13;;;;;;;15.98;93.45;101614.34;5034647;28;20467;-81
2023/05/06 07:20:57;;;;;;;11.25;7.35;;;;;;;16.32;93.44;101611.38;5034665;28;20026;-80
2023/05/06 07:23:25;;;;;;;17.88;9.55;;;;;;;16.47;91.37;101614.53;5033937;28;20033;-81
2023/05/06 07:25:50;;;;;;;14.18;8.88;;;;;;;16.63;89.74;101609.44;5033739;28;20113;-81
2023/05/06 07:28:15;;;;;;;12.80;8.23;;;;;;;16.82;88.99;101613.19;5034810;28;20109;-81
2023/05/06 07:30:41;;;;;;;18.33;10.95;;;;;;;16.81;85.93;101606.09;5030821;28;20426;-81
2023/05/06 07:33:06;;;;;;;20.25;10.55;;;;;;;16.96;85.37;101615.47;5034937;28;20104;-81
2023/05/06 07:35:31;;;;;;;19.38;10.77;;;;;;;17.05;86.94;101605.72;5034889;28;20028;-81
2023/05/06 07:37:57;;;;;;;20.33;12.40;;;;;;;17.28;86.96;101608.09;5034350;28;20116;-81
2023/05/06 07:40:22;;;;;;;20.08;13.07;;;;;;;17.50;84.87;101617.69;5027594;28;20495;-81
2023/05/06 07:42:47;;;;;;;20.52;12.32;;;;;;;17.78;82.84;101613.22;5030196;28;20026;-81
2023/05/06 07:45:14;;;;;;;18.85;11.32;;;;;;;18.01;82.96;101616.44;5031087;28;20112;-80
2023/05/06 07:47:39;;;;;;;17.67;9.90;;;;;;;18.22;81.51;101615.34;5028686;28;20030;-81
2023/05/06 07:50:05;;;;;;;17.40;10.60;;;;;;;18.47;80.01;101620.06;5027582;28;20113;-81
2023/05/06 07:52:31;;;;;;;21.10;11.98;;;;;;;18.72;78.48;101616.75;5033489;28;20064;-81
2023/05/06 07:54:56;;;;;;;19.92;11.52;;;;;;;18.95;76.87;101617.19;5034242;28;20026;-80
2023/05/06 07:57:21;;;;;;;17.42;11.57;;;;;;;19.19;75.94;101619.28;5034107;28;20025;-80
2023/05/06 07:59:48;;;;;;;18.85;11.88;;;;;;;19.39;75.10;101620.78;5030628;28;20028;-80
2023/05/06 08:02:14;;;;;;;16.40;10.13;;;;;;;19.65;73.32;101619.09;5029646;28;20029;-80
2023/05/06 08:04:39;;;;;;;16.77;10.95;;;;;;;19.83;71.06;101619.09;5031622;28;20032;-80
2023/05/06 08:07:05;;;;;;;15.40;10.18;;;;;;;19.88;72.37;101612.19;5029707;28;20045;-80
2023/05/06 08:09:30;;;;;;;13.80;9.40;;;;;;;20.24;72.68;101605.81;5033927;28;20089;-81
2023/05/06 08:11:55;;;;;;;15.10;8.55;;;;;;;20.44;69.29;101618.03;5032659;28;20045;-81
2023/05/06 08:14:21;;;;;;;13.63;9.00;;;;;;;20.59;67.70;101620.94;5032803;28;20133;-82
2023/05/06 08:16:46;;;;;;;15.07;9.15;;;;;;;20.75;69.00;101619.31;5032856;28;20280;-81
2023/05/06 08:19:11;;;;;;;14.20;8.73;;;;;;;20.94;66.82;101619.00;5031732;28;20396;-81
2023/05/06 08:21:37;;;;;;;14.83;8.43;;;;;;;21.09;63.58;101621.06;5033753;28;20120;-81
2023/05/06 08:24:02;;;;;;;11.52;8.00;;;;;;;21.24;63.96;101612.09;5026661;28;20283;-82
2023/05/06 08:26:28;;;;;;;14.35;8.77;;;;;;;21.37;64.46;101618.88;5038375;28;20495;-82
2023/05/06 08:28:55;;;;;;;15.90;9.50;;;;;;;21.47;62.35;101614.16;5037003;28;20036;-82
2023/05/06 08:31:20;;;;;;;12.57;7.63;;;;;;;21.75;63.12;101608.34;5037818;28;20295;-82
2023/05/06 08:33:45;;;;;;;12.38;8.23;;;;;;;21.91;61.50;101610.16;5033836;28;21178;-82
2023/05/06 08:36:11;;;;;;;16.48;9.57;;;;;;;22.25;62.81;101606.31;5029917;28;20029;-82
2023/05/06 08:38:36;;;;;;;13.23;7.97;;;;;;;22.57;61.25;101604.50;5029980;28;20416;-82
2023/05/06 08:41:08;;;;;;;11.88;5.55;;;;;;;22.54;58.62;101611.13;5035005;28;20299;-82
2023/05/06 08:43:40;;;;;;;10.80;6.20;;;;;;;22.38;57.51;101611.19;5031744;28;20112;-82
2023/05/06 08:46:05;;;;;;;10.95;6.15;;;;;;;22.57;56.59;101613.47;5041549;28;20025;-82
2023/05/06 08:48:31;;;;;;;9.52;6.15;;;;;;;22.67;57.88;101613.25;5044033;28;20436;-82
2023/05/06 08:50:59;;;;;;;13.35;7.53;;;;;;;22.75;56.92;101610.50;5033082;28;20060;-82
2023/05/06 08:53:32;;;;;;;;;;;;;;;23.09;63.90;101595.69;5032959;28;20021;-82
2023/05/06 08:56:05;;;;;;;7.10;5.68;;;;;;;23.25;55.20;101600.16;5028151;28;19924;-82
2023/05/06 08:58:37;;;;;;;8.95;5.45;;;;;;;23.45;54.89;101592.34;5032109;28;20087;-82
2023/05/06 09:01:03;;;;;;;7.95;5.82;;;;;;;23.63;53.53;101591.97;5033866;28;20075;-82
2023/05/06 09:03:29;;;;;;;10.60;5.78;;;;;;;23.56;49.58;101586.44;5027171;28;20494;-82
2023/05/06 09:05:55;;;;;;;8.98;5.40;;;;;;;23.69;52.81;101580.38;5031225;28;20022;-82
2023/05/06 09:08:21;;;;;;;8.77;4.70;;;;;;;23.95;50.94;101568.25;5032805;28;20073;-82
2023/05/06 09:10:46;;;;;;;8.98;4.57;;;;;;;23.76;50.00;101556.88;5024077;28;20077;-82
2023/05/06 09:13:13;;;;;;;8.48;3.55;;;;;;;23.85;49.40;101582.09;5032172;28;20091;-82
2023/05/06 09:15:43;;;;;;;7.13;3.38;;;;;;;24.20;48.41;101579.63;5031719;28;20060;-82
2023/05/06 09:18:10;;;;;;;6.63;3.83;;;;;;;24.24;47.12;101583.66;5032904;28;20132;-82
2023/05/06 09:20:40;;;;;;;4.90;3.72;;;;;;;24.48;47.76;101576.19;5022754;28;20048;-82
2023/05/06 09:23:08;;;;;;;6.43;4.30;;;;;;;24.75;47.51;101582.78;5034655;28;20025;-82
2023/05/06 09:25:34;;;;;;;6.28;3.30;;;;;;;25.09;47.59;101576.59;5035575;28;20021;-82
2023/05/06 09:28:08;;;;;;;5.72;2.97;;;;;;;25.36;48.02;101584.19;5035251;28;20045;-82
2023/05/06 09:30:37;;;;;;;4.13;2.90;;;;;;;25.29;46.08;101578.69;5033088;28;20044;-81
2023/05/06 09:33:03;;;;;;;5.07;2.60;;;;;;;25.21;42.93;101578.78;5030394;28;21425;-81
2023/05/06 09:35:35;;;;;;;5.55;2.80;;;;;;;25.27;44.60;101578.06;5036257;28;20045;-81
2023/05/06 09:38:00;;;;;;;5.20;2.83;;;;;;;25.42;44.55;101565.19;5036026;28;20032;-81
2023/05/06 09:40:27;;;;;;;4.70;2.60;;;;;;;25.40;45.59;101580.03;5032229;28;20081;-82
2023/05/06 09:42:52;;;;;;;3.40;2.50;;;;;;;25.72;44.75;101575.84;5032385;28;20288;-81
2023/05/06 09:45:38;;;;;;;2.92;2.60;;;;;;;25.85;43.76;101565.03;5034650;28;20044;-83
2023/05/06 09:48:06;;;;;;;4.22;2.60;;;;;;;26.20;43.85;101566.91;5028789;28;20097;-83
2023/05/06 09:50:31;;;;;;;5.47;2.53;;;;;;;26.16;42.09;101560.16;5028235;28;20047;-83
2023/05/06 09:52:59;;;;;;;3.38;2.30;;;;;;;26.29;42.79;101562.94;5031675;28;20374;-84
2023/05/06 09:55:25;;;;;;;3.20;1.97;;;;;;;26.29;40.88;101571.09;5036783;28;20041;-84
2023/05/06 09:57:54;;;;;;;3.97;2.20;;;;;;;26.15;40.49;101553.88;5030947;28;20119;-84
2023/05/06 10:00:25;;;;;;;3.45;1.80;;;;;;;26.44;42.71;101554.59;5028712;28;20124;-83
2023/05/06 10:02:51;;;;;;;3.75;1.58;;;;;;;26.71;40.34;101558.25;5028855;28;20078;-83
2023/05/06 10:05:16;;;;;;;3.28;1.35;;;;;;;26.97;39.10;101553.88;5031781;28;20052;-83
2023/05/06 10:07:46;;;;;;;2.60;0.90;;;;;;;26.89;36.50;101546.72;5025286;28;20054;-83
2023/05/06 10:10:13;;;;;;;2.28;1.10;;;;;;;26.99;38.38;101551.75;5036787;28;20410;-83
2023/05/06 10:12:38;;;;;;;3.45;1.50;;;;;;;27.06;38.32;101557.22;5029424;28;20033;-83
2023/05/06 10:15:04;;;;;;;5.05;1.85;;;;;;;27.11;38.80;101546.50;5027081;28;20041;-83
2023/05/06 10:17:31;;;;;;;3.72;1.40;;;;;;;26.96;38.86;101552.19;5021949;28;20037;-84
2023/05/06 10:19:59;;;;;;;2.83;1.73;;;;;;;26.57;39.86;101549.19;5023687;28;20441;-83
2023/05/06 10:22:42;;;;;;;3.38;1.80;;;;;;;26.67;39.49;101553.44;5030008;28;20479;-85
2023/05/06 10:25:30;;;;;;;1.70;1.33;;;;;;;26.42;40.10;101547.69;5036611;28;20055;-86
2023/05/06 10:27:55;;;;;;;1.63;1.35;;;;;;;26.16;39.08;101552.00;5049016;28;20010;-85
2023/05/06 10:30:21;;;;;;;4.10;1.60;;;;;;;25.64;38.11;101535.19;5044138;28;20029;-84
2023/05/06 10:32:51;;;;;;;3.17;1.20;;;;;;;25.57;41.13;101540.59;5055444;28;20295;-84
2023/05/06 10:35:31;;;;;;;2.53;1.50;;;;;;;25.80;42.09;101537.59;5045904;28;20060;-82
2023/05/06 10:37:58;;;;;;;4.25;1.50;;;;;;;25.93;41.26;101535.97;5041253;28;20064;-81
2023/05/06 10:40:24;;;;;;;3.05;1.70;;;;;;;25.66;39.01;101525.81;5047347;28;20125;-81
2023/05/06 10:42:50;;;;;;;5.55;1.40;;;;;;;25.28;41.61;101528.06;5045335;28;20022;-81
2023/05/06 10:45:15;;;;;;;2.38;1.40;;;;;;;25.04;42.60;101529.31;5036936;28;20053;-82
2023/05/06 10:47:56;;;;;;;3.83;1.48;;;;;;;25.26;42.32;101532.81;5031022;28;20029;-81
2023/05/06 10:50:23;;;;;;;4.22;1.45;;;;;;;25.25;40.85;101533.88;5032298;28;20064;-82
2023/05/06 10:52:54;;;;;;;3.25;1.48;;;;;;;25.24;41.37;101522.16;5040877;28;20033;-81
2023/05/06 10:55:31;;;;;;;4.22;1.35;;;;;;;25.24;42.00;101516.72;5037338;28;20467;-81
2023/05/06 10:58:00;;;;;;;3.25;1.45;;;;;;;25.16;39.90;101524.19;5035390;28;20038;-81
2023/05/06 11:00:29;;;;;;;5.53;1.77;;;;;;;25.17;40.29;101517.72;5033020;28;20070;-81
2023/05/06 11:02:59;;;;;;;;;;;;;;;25.57;44.05;101518.84;5033808;28;20552;-81
2023/05/06 11:05:25;;;;;;;4.13;1.60;;;;;;;25.18;41.23;101512.09;5036751;28;19917;-81
2023/05/06 11:07:51;;;;;;;3.72;1.33;;;;;;;25.18;40.78;101513.94;5036601;28;20050;-81
2023/05/06 11:10:31;;;;;;;3.10;1.52;;;;;;;25.02;42.04;101521.38;5031041;28;20414;-81